sensor_id;sensor_type;location;lat;lon;timestamp;P1;durP1;ratioP1;P2;durP2;ratioP2
1020;SDS011;499;42.648;23.270;2023-07-31T00:02:21;2.20;;;1.73;;
1020;SDS011;499;42.648;23.270;2023-07-31T00:04:49;1.43;;;1.00;;
1020;SDS011;499;42.648;23.270;2023-07-31T00:07:16;1.70;;;1.30;;
1020;SDS011;499;42.648;23.270;2023-07-31T00:09:43;1.77;;;1.17;;
1020;SDS011;499;42.648;23.270;2023-07-31T00:12:10;1.83;;;1.50;;
1020;SDS011;499;42.648;23.270;2023-07-31T00:14:37;1.53;;;1.20;;
1020;SDS011;499;42.648;23.270;2023-07-31T00:17:04;2.40;;;2.00;;
1020;SDS011;499;42.648;23.270;2023-07-31T00:19:33;2.07;;;1.37;;
1020;SDS011;499;42.648;23.270;2023-07-31T00:22:00;1.73;;;1.37;;
1020;SDS011;499;42.648;23.270;2023-07-31T00:24:27;2.47;;;1.67;;
1020;SDS011;499;42.648;23.270;2023-07-31T00:26:54;2.30;;;1.43;;
1020;SDS011;499;42.648;23.270;2023-07-31T00:29:21;2.70;;;1.50;;
1020;SDS011;499;42.648;23.270;2023-07-31T00:31:48;2.70;;;2.10;;
1020;SDS011;499;42.648;23.270;2023-07-31T00:34:15;2.03;;;1.50;;
1020;SDS011;499;42.648;23.270;2023-07-31T00:36:44;2.43;;;2.07;;
1020;SDS011;499;42.648;23.270;2023-07-31T00:39:11;2.80;;;2.17;;
1020;SDS011;499;42.648;23.270;2023-07-31T00:41:38;2.10;;;1.60;;
1020;SDS011;499;42.648;23.270;2023-07-31T00:44:05;2.47;;;1.50;;
1020;SDS011;499;42.648;23.270;2023-07-31T00:46:32;2.33;;;1.60;;
1020;SDS011;499;42.648;23.270;2023-07-31T00:49:00;1.80;;;1.47;;
1020;SDS011;499;42.648;23.270;2023-07-31T00:51:27;3.00;;;1.90;;
1020;SDS011;499;42.648;23.270;2023-07-31T00:53:56;2.77;;;2.30;;
1020;SDS011;499;42.648;23.270;2023-07-31T00:56:23;2.83;;;2.37;;
1020;SDS011;499;42.648;23.270;2023-07-31T00:58:51;3.40;;;2.80;;
1020;SDS011;499;42.648;23.270;2023-07-31T01:01:18;3.17;;;2.77;;
1020;SDS011;499;42.648;23.270;2023-07-31T01:03:45;3.47;;;2.30;;
1020;SDS011;499;42.648;23.270;2023-07-31T01:06:14;3.77;;;3.20;;
1020;SDS011;499;42.648;23.270;2023-07-31T01:08:48;4.10;;;3.40;;
1020;SDS011;499;42.648;23.270;2023-07-31T01:11:24;4.87;;;3.40;;
1020;SDS011;499;42.648;23.270;2023-07-31T01:13:54;5.20;;;4.13;;
1020;SDS011;499;42.648;23.270;2023-07-31T01:16:21;3.73;;;3.37;;
1020;SDS011;499;42.648;23.270;2023-07-31T01:18:48;3.50;;;3.20;;
1020;SDS011;499;42.648;23.270;2023-07-31T01:21:19;6.10;;;4.67;;
1020;SDS011;499;42.648;23.270;2023-07-31T01:26:51;5.20;;;4.10;;
1020;SDS011;499;42.648;23.270;2023-07-31T01:29:25;4.90;;;4.30;;
1020;SDS011;499;42.648;23.270;2023-07-31T01:31:59;7.27;;;5.53;;
1020;SDS011;499;42.648;23.270;2023-07-31T01:34:29;5.30;;;4.27;;
1020;SDS011;499;42.648;23.270;2023-07-31T01:36:57;6.50;;;4.73;;
1020;SDS011;499;42.648;23.270;2023-07-31T01:39:24;4.90;;;4.10;;
1020;SDS011;499;42.648;23.270;2023-07-31T01:41:53;6.47;;;5.13;;
1020;SDS011;499;42.648;23.270;2023-07-31T01:44:20;5.93;;;5.33;;
1020;SDS011;499;42.648;23.270;2023-07-31T01:46:47;5.00;;;4.50;;
1020;SDS011;499;42.648;23.270;2023-07-31T01:49:15;9.30;;;7.30;;
1020;SDS011;499;42.648;23.270;2023-07-31T01:51:41;5.47;;;4.97;;
1020;SDS011;499;42.648;23.270;2023-07-31T01:54:09;7.93;;;6.17;;
1020;SDS011;499;42.648;23.270;2023-07-31T01:56:36;7.77;;;6.17;;
1020;SDS011;499;42.648;23.270;2023-07-31T01:59:04;8.00;;;6.33;;
1020;SDS011;499;42.648;23.270;2023-07-31T02:01:31;6.43;;;5.20;;
1020;SDS011;499;42.648;23.270;2023-07-31T02:03:58;5.37;;;4.87;;
1020;SDS011;499;42.648;23.270;2023-07-31T02:06:25;6.87;;;5.40;;
1020;SDS011;499;42.648;23.270;2023-07-31T02:08:52;7.10;;;5.20;;
1020;SDS011;499;42.648;23.270;2023-07-31T02:11:19;6.40;;;4.33;;
1020;SDS011;499;42.648;23.270;2023-07-31T02:13:46;7.40;;;6.40;;
1020;SDS011;499;42.648;23.270;2023-07-31T02:16:15;6.73;;;5.57;;
1020;SDS011;499;42.648;23.270;2023-07-31T02:18:42;5.13;;;4.40;;
1020;SDS011;499;42.648;23.270;2023-07-31T02:21:09;7.03;;;4.90;;
1020;SDS011;499;42.648;23.270;2023-07-31T02:23:36;7.07;;;5.43;;
1020;SDS011;499;42.648;23.270;2023-07-31T02:26:03;7.30;;;5.73;;
1020;SDS011;499;42.648;23.270;2023-07-31T02:28:30;5.77;;;4.83;;
1020;SDS011;499;42.648;23.270;2023-07-31T02:30:56;5.47;;;5.00;;
1020;SDS011;499;42.648;23.270;2023-07-31T02:33:25;6.33;;;4.80;;
1020;SDS011;499;42.648;23.270;2023-07-31T02:35:52;7.23;;;6.10;;
1020;SDS011;499;42.648;23.270;2023-07-31T02:38:19;6.33;;;5.73;;
1020;SDS011;499;42.648;23.270;2023-07-31T02:40:47;6.53;;;5.73;;
1020;SDS011;499;42.648;23.270;2023-07-31T02:43:14;5.80;;;5.20;;
1020;SDS011;499;42.648;23.270;2023-07-31T02:45:41;6.10;;;5.03;;
1020;SDS011;499;42.648;23.270;2023-07-31T02:48:08;4.80;;;4.27;;
1020;SDS011;499;42.648;23.270;2023-07-31T02:50:37;6.60;;;5.10;;
1020;SDS011;499;42.648;23.270;2023-07-31T02:53:04;6.27;;;5.27;;
1020;SDS011;499;42.648;23.270;2023-07-31T02:55:31;5.70;;;5.07;;
1020;SDS011;499;42.648;23.270;2023-07-31T02:57:58;6.87;;;4.20;;
1020;SDS011;499;42.648;23.270;2023-07-31T03:00:25;6.13;;;5.53;;
1020;SDS011;499;42.648;23.270;2023-07-31T03:02:52;6.77;;;5.20;;
1020;SDS011;499;42.648;23.270;2023-07-31T03:05:19;6.07;;;5.47;;
1020;SDS011;499;42.648;23.270;2023-07-31T03:07:48;5.80;;;4.70;;
1020;SDS011;499;42.648;23.270;2023-07-31T03:10:15;5.67;;;4.47;;
1020;SDS011;499;42.648;23.270;2023-07-31T03:12:42;7.33;;;6.00;;
1020;SDS011;499;42.648;23.270;2023-07-31T03:15:12;6.67;;;5.90;;
1020;SDS011;499;42.648;23.270;2023-07-31T03:17:39;7.33;;;4.60;;
1020;SDS011;499;42.648;23.270;2023-07-31T03:20:06;7.70;;;4.97;;
1020;SDS011;499;42.648;23.270;2023-07-31T03:22:34;6.50;;;4.97;;
1020;SDS011;499;42.648;23.270;2023-07-31T03:25:03;8.20;;;5.80;;
1020;SDS011;499;42.648;23.270;2023-07-31T03:27:30;5.93;;;4.50;;
1020;SDS011;499;42.648;23.270;2023-07-31T03:29:57;6.90;;;5.20;;
1020;SDS011;499;42.648;23.270;2023-07-31T03:32:26;6.67;;;4.77;;
1020;SDS011;499;42.648;23.270;2023-07-31T03:34:53;6.50;;;4.80;;
1020;SDS011;499;42.648;23.270;2023-07-31T03:37:20;6.80;;;5.00;;
1020;SDS011;499;42.648;23.270;2023-07-31T03:39:47;6.57;;;5.30;;
1020;SDS011;499;42.648;23.270;2023-07-31T03:42:16;6.30;;;5.63;;
1020;SDS011;499;42.648;23.270;2023-07-31T03:44:43;5.40;;;4.57;;
1020;SDS011;499;42.648;23.270;2023-07-31T03:47:10;8.17;;;5.07;;
1020;SDS011;499;42.648;23.270;2023-07-31T03:49:37;5.90;;;4.47;;
1020;SDS011;499;42.648;23.270;2023-07-31T03:52:04;6.80;;;4.80;;
1020;SDS011;499;42.648;23.270;2023-07-31T03:54:31;8.37;;;4.97;;
1020;SDS011;499;42.648;23.270;2023-07-31T03:56:58;5.63;;;4.43;;
1020;SDS011;499;42.648;23.270;2023-07-31T03:59:27;6.57;;;4.23;;
1020;SDS011;499;42.648;23.270;2023-07-31T04:01:54;6.17;;;5.00;;
1020;SDS011;499;42.648;23.270;2023-07-31T04:04:21;5.07;;;4.43;;
1020;SDS011;499;42.648;23.270;2023-07-31T04:06:48;6.83;;;4.53;;
1020;SDS011;499;42.648;23.270;2023-07-31T04:09:15;4.80;;;3.27;;
1020;SDS011;499;42.648;23.270;2023-07-31T04:11:42;6.50;;;5.27;;
1020;SDS011;499;42.648;23.270;2023-07-31T04:14:09;5.97;;;4.43;;
1020;SDS011;499;42.648;23.270;2023-07-31T04:16:37;6.17;;;5.37;;
1020;SDS011;499;42.648;23.270;2023-07-31T04:19:04;7.77;;;5.20;;
1020;SDS011;499;42.648;23.270;2023-07-31T04:21:31;7.37;;;5.13;;
1020;SDS011;499;42.648;23.270;2023-07-31T04:23:58;7.00;;;4.77;;
1020;SDS011;499;42.648;23.270;2023-07-31T04:26:25;7.87;;;5.27;;
1020;SDS011;499;42.648;23.270;2023-07-31T04:28:52;5.07;;;4.17;;
1020;SDS011;499;42.648;23.270;2023-07-31T04:31:19;4.67;;;3.70;;
1020;SDS011;499;42.648;23.270;2023-07-31T04:33:48;6.70;;;5.07;;
1020;SDS011;499;42.648;23.270;2023-07-31T04:36:15;6.17;;;4.77;;
1020;SDS011;499;42.648;23.270;2023-07-31T04:38:42;6.93;;;4.77;;
1020;SDS011;499;42.648;23.270;2023-07-31T05:03:16;5.07;;;4.57;;
1020;SDS011;499;42.648;23.270;2023-07-31T05:05:43;5.03;;;4.33;;
1020;SDS011;499;42.648;23.270;2023-07-31T05:08:10;4.30;;;3.20;;
1020;SDS011;499;42.648;23.270;2023-07-31T05:10:37;4.77;;;3.93;;
1020;SDS011;499;42.648;23.270;2023-07-31T05:13:04;4.47;;;2.97;;
1020;SDS011;499;42.648;23.270;2023-07-31T05:15:31;4.97;;;3.37;;
1020;SDS011;499;42.648;23.270;2023-07-31T05:17:58;3.87;;;3.47;;
1020;SDS011;499;42.648;23.270;2023-07-31T05:20:27;4.33;;;3.50;;
1020;SDS011;499;42.648;23.270;2023-07-31T05:22:54;3.43;;;2.77;;
1020;SDS011;499;42.648;23.270;2023-07-31T05:25:20;6.13;;;3.70;;
1020;SDS011;499;42.648;23.270;2023-07-31T05:27:47;3.60;;;2.90;;
1020;SDS011;499;42.648;23.270;2023-07-31T05:30:14;4.77;;;3.33;;
1020;SDS011;499;42.648;23.270;2023-07-31T05:32:42;5.37;;;4.33;;
1020;SDS011;499;42.648;23.270;2023-07-31T05:35:09;4.10;;;2.97;;
1020;SDS011;499;42.648;23.270;2023-07-31T05:37:37;3.30;;;2.27;;
1020;SDS011;499;42.648;23.270;2023-07-31T05:40:05;3.03;;;2.67;;
1020;SDS011;499;42.648;23.270;2023-07-31T05:42:33;3.77;;;2.80;;
1020;SDS011;499;42.648;23.270;2023-07-31T05:45:01;3.60;;;2.50;;
1020;SDS011;499;42.648;23.270;2023-07-31T05:47:29;4.20;;;3.00;;
1020;SDS011;499;42.648;23.270;2023-07-31T05:49:56;3.43;;;2.30;;
1020;SDS011;499;42.648;23.270;2023-07-31T05:52:23;4.03;;;2.80;;
1020;SDS011;499;42.648;23.270;2023-07-31T05:54:51;3.27;;;2.30;;
1020;SDS011;499;42.648;23.270;2023-07-31T05:57:18;3.43;;;2.83;;
1020;SDS011;499;42.648;23.270;2023-07-31T05:59:45;3.80;;;2.47;;
1020;SDS011;499;42.648;23.270;2023-07-31T06:02:12;3.60;;;3.03;;
1020;SDS011;499;42.648;23.270;2023-07-31T06:04:39;2.37;;;1.97;;
1020;SDS011;499;42.648;23.270;2023-07-31T06:07:06;3.97;;;2.27;;
1020;SDS011;499;42.648;23.270;2023-07-31T06:09:33;3.57;;;2.73;;
1020;SDS011;499;42.648;23.270;2023-07-31T06:12:02;3.93;;;2.20;;
1020;SDS011;499;42.648;23.270;2023-07-31T06:14:29;3.20;;;1.90;;
1020;SDS011;499;42.648;23.270;2023-07-31T06:16:56;3.23;;;2.40;;
1020;SDS011;499;42.648;23.270;2023-07-31T06:19:23;2.77;;;1.60;;
1020;SDS011;499;42.648;23.270;2023-07-31T06:21:50;2.87;;;2.00;;
1020;SDS011;499;42.648;23.270;2023-07-31T06:24:17;3.10;;;1.87;;
1020;SDS011;499;42.648;23.270;2023-07-31T06:26:45;1.90;;;1.40;;
1020;SDS011;499;42.648;23.270;2023-07-31T06:29:14;2.30;;;1.30;;
1020;SDS011;499;42.648;23.270;2023-07-31T06:31:41;1.70;;;1.40;;
1020;SDS011;499;42.648;23.270;2023-07-31T06:34:08;2.77;;;1.50;;
1020;SDS011;499;42.648;23.270;2023-07-31T06:36:35;2.83;;;1.33;;
1020;SDS011;499;42.648;23.270;2023-07-31T06:39:02;2.47;;;1.80;;
1020;SDS011;499;42.648;23.270;2023-07-31T06:41:29;1.93;;;1.33;;
1020;SDS011;499;42.648;23.270;2023-07-31T06:43:55;2.50;;;1.53;;
1020;SDS011;499;42.648;23.270;2023-07-31T06:46:24;1.87;;;1.33;;
1020;SDS011;499;42.648;23.270;2023-07-31T06:48:51;2.20;;;1.40;;
1020;SDS011;499;42.648;23.270;2023-07-31T06:51:18;2.70;;;1.80;;
1020;SDS011;499;42.648;23.270;2023-07-31T06:53:45;2.07;;;1.40;;
1020;SDS011;499;42.648;23.270;2023-07-31T06:56:12;2.00;;;1.10;;
1020;SDS011;499;42.648;23.270;2023-07-31T06:58:39;2.03;;;1.30;;
1020;SDS011;499;42.648;23.270;2023-07-31T07:01:06;2.03;;;1.10;;
1020;SDS011;499;42.648;23.270;2023-07-31T07:03:34;1.50;;;1.00;;
1020;SDS011;499;42.648;23.270;2023-07-31T07:06:01;2.00;;;1.30;;
1020;SDS011;499;42.648;23.270;2023-07-31T07:08:28;3.03;;;1.50;;
1020;SDS011;499;42.648;23.270;2023-07-31T07:10:55;2.13;;;1.67;;
1020;SDS011;499;42.648;23.270;2023-07-31T07:13:22;2.00;;;1.00;;
1020;SDS011;499;42.648;23.270;2023-07-31T07:15:49;1.70;;;0.93;;
1020;SDS011;499;42.648;23.270;2023-07-31T07:18:17;2.03;;;1.20;;
1020;SDS011;499;42.648;23.270;2023-07-31T07:20:48;1.80;;;1.00;;
1020;SDS011;499;42.648;23.270;2023-07-31T07:23:16;1.23;;;1.00;;
1020;SDS011;499;42.648;23.270;2023-07-31T07:25:43;2.67;;;0.90;;
1020;SDS011;499;42.648;23.270;2023-07-31T07:28:11;1.70;;;1.20;;
1020;SDS011;499;42.648;23.270;2023-07-31T07:30:39;2.90;;;1.00;;
1020;SDS011;499;42.648;23.270;2023-07-31T07:33:06;1.60;;;1.10;;
1020;SDS011;499;42.648;23.270;2023-07-31T07:35:33;1.50;;;0.90;;
1020;SDS011;499;42.648;23.270;2023-07-31T07:38:02;1.33;;;0.80;;
1020;SDS011;499;42.648;23.270;2023-07-31T07:40:29;1.60;;;1.20;;
1020;SDS011;499;42.648;23.270;2023-07-31T07:42:56;1.67;;;0.83;;
1020;SDS011;499;42.648;23.270;2023-07-31T07:45:23;1.63;;;1.07;;
1020;SDS011;499;42.648;23.270;2023-07-31T07:47:50;1.33;;;0.80;;
1020;SDS011;499;42.648;23.270;2023-07-31T07:50:17;1.50;;;0.80;;
1020;SDS011;499;42.648;23.270;2023-07-31T07:52:44;1.80;;;1.00;;
1020;SDS011;499;42.648;23.270;2023-07-31T07:55:12;1.33;;;0.70;;
1020;SDS011;499;42.648;23.270;2023-07-31T07:57:39;1.70;;;0.90;;
1020;SDS011;499;42.648;23.270;2023-07-31T08:00:06;2.20;;;1.10;;
1020;SDS011;499;42.648;23.270;2023-07-31T08:02:35;1.83;;;1.13;;
1020;SDS011;499;42.648;23.270;2023-07-31T08:05:02;1.20;;;0.60;;
1020;SDS011;499;42.648;23.270;2023-07-31T08:07:30;2.00;;;1.13;;
1020;SDS011;499;42.648;23.270;2023-07-31T08:09:57;1.40;;;0.87;;
1020;SDS011;499;42.648;23.270;2023-07-31T08:12:25;1.30;;;0.80;;
1020;SDS011;499;42.648;23.270;2023-07-31T08:14:52;1.50;;;0.90;;
1020;SDS011;499;42.648;23.270;2023-07-31T08:17:19;1.90;;;1.13;;
1020;SDS011;499;42.648;23.270;2023-07-31T08:19:46;1.37;;;0.83;;
1020;SDS011;499;42.648;23.270;2023-07-31T08:22:13;1.67;;;0.90;;
1020;SDS011;499;42.648;23.270;2023-07-31T08:24:40;2.17;;;0.97;;
1020;SDS011;499;42.648;23.270;2023-07-31T08:27:07;2.07;;;1.37;;
1020;SDS011;499;42.648;23.270;2023-07-31T08:29:35;1.83;;;1.20;;
1020;SDS011;499;42.648;23.270;2023-07-31T08:32:02;1.63;;;1.03;;
1020;SDS011;499;42.648;23.270;2023-07-31T08:34:30;1.40;;;0.70;;
1020;SDS011;499;42.648;23.270;2023-07-31T08:36:57;1.30;;;0.77;;
1020;SDS011;499;42.648;23.270;2023-07-31T08:39:24;2.00;;;1.33;;
1020;SDS011;499;42.648;23.270;2023-07-31T08:41:51;1.20;;;0.63;;
1020;SDS011;499;42.648;23.270;2023-07-31T08:44:23;1.40;;;1.00;;
1020;SDS011;499;42.648;23.270;2023-07-31T08:46:52;1.43;;;1.07;;
1020;SDS011;499;42.648;23.270;2023-07-31T08:49:19;1.20;;;0.70;;
1020;SDS011;499;42.648;23.270;2023-07-31T08:51:49;1.37;;;0.80;;
1020;SDS011;499;42.648;23.270;2023-07-31T08:57:39;1.20;;;0.63;;
1020;SDS011;499;42.648;23.270;2023-07-31T09:00:08;1.30;;;0.90;;
1020;SDS011;499;42.648;23.270;2023-07-31T09:02:38;1.30;;;0.73;;
1020;SDS011;499;42.648;23.270;2023-07-31T09:05:10;1.33;;;0.77;;
1020;SDS011;499;42.648;23.270;2023-07-31T09:07:37;1.50;;;0.90;;
1020;SDS011;499;42.648;23.270;2023-07-31T09:10:05;1.80;;;0.67;;
1020;SDS011;499;42.648;23.270;2023-07-31T09:12:33;1.53;;;0.67;;
1020;SDS011;499;42.648;23.270;2023-07-31T09:15:00;1.47;;;0.73;;
1020;SDS011;499;42.648;23.270;2023-07-31T09:17:28;1.60;;;0.83;;
1020;SDS011;499;42.648;23.270;2023-07-31T09:19:57;1.60;;;0.90;;
1020;SDS011;499;42.648;23.270;2023-07-31T09:22:38;1.50;;;0.90;;
1020;SDS011;499;42.648;23.270;2023-07-31T09:25:13;1.90;;;1.00;;
1020;SDS011;499;42.648;23.270;2023-07-31T09:27:48;1.40;;;0.60;;
1020;SDS011;499;42.648;23.270;2023-07-31T09:30:16;2.00;;;1.80;;
1020;SDS011;499;42.648;23.270;2023-07-31T09:32:44;1.60;;;0.90;;
1020;SDS011;499;42.648;23.270;2023-07-31T09:35:20;2.00;;;1.10;;
1020;SDS011;499;42.648;23.270;2023-07-31T09:37:49;1.40;;;0.90;;
1020;SDS011;499;42.648;23.270;2023-07-31T09:40:26;1.63;;;0.93;;
1020;SDS011;499;42.648;23.270;2023-07-31T09:42:56;1.63;;;1.20;;
1020;SDS011;499;42.648;23.270;2023-07-31T09:45:23;2.40;;;1.47;;
1020;SDS011;499;42.648;23.270;2023-07-31T09:47:50;2.23;;;0.90;;
1020;SDS011;499;42.648;23.270;2023-07-31T09:50:19;1.77;;;1.03;;
1020;SDS011;499;42.648;23.270;2023-07-31T09:52:48;1.53;;;1.00;;
1020;SDS011;499;42.648;23.270;2023-07-31T09:55:16;1.80;;;1.23;;
1020;SDS011;499;42.648;23.270;2023-07-31T09:57:44;1.37;;;0.60;;
1020;SDS011;499;42.648;23.270;2023-07-31T10:00:13;1.63;;;1.20;;
1020;SDS011;499;42.648;23.270;2023-07-31T10:02:41;1.50;;;0.73;;
1020;SDS011;499;42.648;23.270;2023-07-31T10:05:12;2.20;;;2.00;;
1020;SDS011;499;42.648;23.270;2023-07-31T10:07:42;1.43;;;0.80;;
1020;SDS011;499;42.648;23.270;2023-07-31T10:10:21;1.87;;;1.13;;
1020;SDS011;499;42.648;23.270;2023-07-31T10:12:49;1.30;;;0.73;;
1020;SDS011;499;42.648;23.270;2023-07-31T10:15:16;1.97;;;1.53;;
1020;SDS011;499;42.648;23.270;2023-07-31T10:17:44;1.10;;;0.60;;
1020;SDS011;499;42.648;23.270;2023-07-31T10:20:14;2.13;;;0.63;;
1020;SDS011;499;42.648;23.270;2023-07-31T10:22:44;1.70;;;0.80;;
1020;SDS011;499;42.648;23.270;2023-07-31T10:25:12;1.93;;;0.60;;
1020;SDS011;499;42.648;23.270;2023-07-31T10:27:39;1.10;;;0.57;;
1020;SDS011;499;42.648;23.270;2023-07-31T10:30:07;1.33;;;0.63;;
1020;SDS011;499;42.648;23.270;2023-07-31T10:32:37;1.30;;;0.70;;
1020;SDS011;499;42.648;23.270;2023-07-31T10:35:07;1.53;;;1.00;;
1020;SDS011;499;42.648;23.270;2023-07-31T10:37:38;1.30;;;0.60;;
1020;SDS011;499;42.648;23.270;2023-07-31T10:40:11;1.60;;;0.87;;
1020;SDS011;499;42.648;23.270;2023-07-31T10:42:45;1.90;;;1.10;;
1020;SDS011;499;42.648;23.270;2023-07-31T10:45:14;1.33;;;0.70;;
1020;SDS011;499;42.648;23.270;2023-07-31T10:47:57;1.23;;;0.60;;
1020;SDS011;499;42.648;23.270;2023-07-31T10:50:25;1.43;;;1.00;;
1020;SDS011;499;42.648;23.270;2023-07-31T10:52:54;1.43;;;0.70;;
1020;SDS011;499;42.648;23.270;2023-07-31T10:55:25;2.93;;;0.63;;
1020;SDS011;499;42.648;23.270;2023-07-31T10:57:54;1.20;;;0.60;;
1020;SDS011;499;42.648;23.270;2023-07-31T11:00:23;1.10;;;0.57;;
1020;SDS011;499;42.648;23.270;2023-07-31T11:02:56;1.30;;;0.63;;
1020;SDS011;499;42.648;23.270;2023-07-31T11:08:14;1.30;;;0.70;;
1020;SDS011;499;42.648;23.270;2023-07-31T11:10:44;1.40;;;0.73;;
1020;SDS011;499;42.648;23.270;2023-07-31T11:13:11;1.17;;;0.63;;
1020;SDS011;499;42.648;23.270;2023-07-31T11:15:39;1.63;;;0.70;;
1020;SDS011;499;42.648;23.270;2023-07-31T11:18:06;2.30;;;0.90;;
1020;SDS011;499;42.648;23.270;2023-07-31T11:20:35;1.63;;;0.70;;
1020;SDS011;499;42.648;23.270;2023-07-31T11:23:05;1.73;;;0.90;;
1020;SDS011;499;42.648;23.270;2023-07-31T11:25:34;1.30;;;0.67;;
1020;SDS011;499;42.648;23.270;2023-07-31T11:28:04;1.30;;;0.60;;
1020;SDS011;499;42.648;23.270;2023-07-31T11:30:32;1.63;;;0.60;;
1020;SDS011;499;42.648;23.270;2023-07-31T11:33:01;1.53;;;0.90;;
1020;SDS011;499;42.648;23.270;2023-07-31T11:35:29;1.23;;;0.70;;
1020;SDS011;499;42.648;23.270;2023-07-31T11:37:57;1.20;;;0.60;;
1020;SDS011;499;42.648;23.270;2023-07-31T11:40:24;1.60;;;0.80;;
1020;SDS011;499;42.648;23.270;2023-07-31T11:42:54;1.70;;;0.90;;
1020;SDS011;499;42.648;23.270;2023-07-31T11:45:25;1.20;;;0.60;;
1020;SDS011;499;42.648;23.270;2023-07-31T11:47:54;1.23;;;0.70;;
1020;SDS011;499;42.648;23.270;2023-07-31T11:50:22;1.30;;;0.87;;
1020;SDS011;499;42.648;23.270;2023-07-31T11:52:51;1.30;;;0.73;;
1020;SDS011;499;42.648;23.270;2023-07-31T11:55:22;1.40;;;0.80;;
1020;SDS011;499;42.648;23.270;2023-07-31T11:57:49;3.20;;;0.90;;
1020;SDS011;499;42.648;23.270;2023-07-31T12:00:18;1.57;;;1.03;;
1020;SDS011;499;42.648;23.270;2023-07-31T12:02:46;1.43;;;0.80;;
1020;SDS011;499;42.648;23.270;2023-07-31T12:05:14;1.20;;;0.67;;
1020;SDS011;499;42.648;23.270;2023-07-31T12:07:44;1.30;;;0.60;;
1020;SDS011;499;42.648;23.270;2023-07-31T12:10:22;1.67;;;1.10;;
1020;SDS011;499;42.648;23.270;2023-07-31T12:13:02;1.43;;;0.63;;
1020;SDS011;499;42.648;23.270;2023-07-31T12:15:35;2.47;;;1.30;;
1020;SDS011;499;42.648;23.270;2023-07-31T12:18:05;1.93;;;0.97;;
1020;SDS011;499;42.648;23.270;2023-07-31T12:20:33;1.50;;;0.90;;
1020;SDS011;499;42.648;23.270;2023-07-31T12:23:01;2.17;;;1.20;;
1020;SDS011;499;42.648;23.270;2023-07-31T12:25:28;1.70;;;1.00;;
1020;SDS011;499;42.648;23.270;2023-07-31T12:27:56;2.20;;;1.40;;
1020;SDS011;499;42.648;23.270;2023-07-31T12:30:27;3.00;;;1.37;;
1020;SDS011;499;42.648;23.270;2023-07-31T12:32:54;1.60;;;1.03;;
1020;SDS011;499;42.648;23.270;2023-07-31T12:35:23;1.40;;;0.80;;
1020;SDS011;499;42.648;23.270;2023-07-31T12:37:50;2.20;;;1.23;;
1020;SDS011;499;42.648;23.270;2023-07-31T12:40:17;3.10;;;2.00;;
1020;SDS011;499;42.648;23.270;2023-07-31T12:42:44;1.93;;;1.30;;
1020;SDS011;499;42.648;23.270;2023-07-31T12:45:11;1.93;;;1.40;;
1020;SDS011;499;42.648;23.270;2023-07-31T12:47:38;2.17;;;1.40;;
1020;SDS011;499;42.648;23.270;2023-07-31T12:50:05;2.20;;;1.30;;
1020;SDS011;499;42.648;23.270;2023-07-31T12:52:35;2.57;;;1.60;;
1020;SDS011;499;42.648;23.270;2023-07-31T12:55:02;2.30;;;1.30;;
1020;SDS011;499;42.648;23.270;2023-07-31T12:57:29;1.90;;;1.10;;
1020;SDS011;499;42.648;23.270;2023-07-31T12:59:56;2.40;;;1.77;;
1020;SDS011;499;42.648;23.270;2023-07-31T13:02:23;2.70;;;1.70;;
1020;SDS011;499;42.648;23.270;2023-07-31T13:04:50;2.00;;;1.80;;
1020;SDS011;499;42.648;23.270;2023-07-31T13:07:18;3.00;;;1.83;;
1020;SDS011;499;42.648;23.270;2023-07-31T13:09:46;1.90;;;1.43;;
1020;SDS011;499;42.648;23.270;2023-07-31T13:12:13;2.40;;;1.60;;
1020;SDS011;499;42.648;23.270;2023-07-31T13:14:40;2.47;;;1.63;;
1020;SDS011;499;42.648;23.270;2023-07-31T13:17:07;2.43;;;1.53;;
1020;SDS011;499;42.648;23.270;2023-07-31T13:19:34;2.53;;;2.00;;
1020;SDS011;499;42.648;23.270;2023-07-31T13:22:01;1.57;;;1.03;;
1020;SDS011;499;42.648;23.270;2023-07-31T13:24:29;2.50;;;1.80;;
1020;SDS011;499;42.648;23.270;2023-07-31T13:26:57;2.10;;;1.20;;
1020;SDS011;499;42.648;23.270;2023-07-31T13:29:25;2.80;;;1.60;;
1020;SDS011;499;42.648;23.270;2023-07-31T13:31:52;1.63;;;1.07;;
1020;SDS011;499;42.648;23.270;2023-07-31T13:34:19;3.37;;;1.60;;
1020;SDS011;499;42.648;23.270;2023-07-31T13:36:46;2.50;;;1.33;;
1020;SDS011;499;42.648;23.270;2023-07-31T13:39:13;3.10;;;1.47;;
1020;SDS011;499;42.648;23.270;2023-07-31T13:41:40;2.27;;;1.40;;
1020;SDS011;499;42.648;23.270;2023-07-31T13:44:09;1.97;;;1.20;;
1020;SDS011;499;42.648;23.270;2023-07-31T13:46:35;1.80;;;1.00;;
1020;SDS011;499;42.648;23.270;2023-07-31T13:49:02;1.77;;;1.10;;
1020;SDS011;499;42.648;23.270;2023-07-31T13:51:29;1.70;;;0.90;;
1020;SDS011;499;42.648;23.270;2023-07-31T13:53:57;1.97;;;1.37;;
1020;SDS011;499;42.648;23.270;2023-07-31T13:56:23;1.70;;;1.27;;
1020;SDS011;499;42.648;23.270;2023-07-31T13:58:50;1.87;;;1.10;;
1020;SDS011;499;42.648;23.270;2023-07-31T14:01:19;1.90;;;1.13;;
1020;SDS011;499;42.648;23.270;2023-07-31T14:03:46;2.50;;;1.27;;
1020;SDS011;499;42.648;23.270;2023-07-31T14:06:13;2.00;;;1.10;;
1020;SDS011;499;42.648;23.270;2023-07-31T14:08:40;1.70;;;1.30;;
1020;SDS011;499;42.648;23.270;2023-07-31T14:11:07;2.33;;;1.37;;
1020;SDS011;499;42.648;23.270;2023-07-31T14:13:34;2.00;;;1.50;;
1020;SDS011;499;42.648;23.270;2023-07-31T14:16:01;1.87;;;1.10;;
1020;SDS011;499;42.648;23.270;2023-07-31T14:18:29;1.40;;;0.80;;
1020;SDS011;499;42.648;23.270;2023-07-31T14:20:56;1.33;;;0.70;;
1020;SDS011;499;42.648;23.270;2023-07-31T14:23:23;2.00;;;1.23;;
1020;SDS011;499;42.648;23.270;2023-07-31T14:25:50;2.07;;;1.37;;
1020;SDS011;499;42.648;23.270;2023-07-31T14:28:17;1.90;;;1.10;;
1020;SDS011;499;42.648;23.270;2023-07-31T14:30:44;2.10;;;1.20;;
1020;SDS011;499;42.648;23.270;2023-07-31T14:33:11;1.50;;;0.87;;
1020;SDS011;499;42.648;23.270;2023-07-31T14:35:39;1.53;;;0.87;;
1020;SDS011;499;42.648;23.270;2023-07-31T14:38:06;1.50;;;0.93;;
1020;SDS011;499;42.648;23.270;2023-07-31T14:40:33;1.90;;;1.10;;
1020;SDS011;499;42.648;23.270;2023-07-31T14:43:01;1.53;;;0.87;;
1020;SDS011;499;42.648;23.270;2023-07-31T14:45:28;2.50;;;1.80;;
1020;SDS011;499;42.648;23.270;2023-07-31T14:47:55;2.10;;;1.27;;
1020;SDS011;499;42.648;23.270;2023-07-31T14:50:22;1.50;;;1.00;;
1020;SDS011;499;42.648;23.270;2023-07-31T14:52:52;2.03;;;1.07;;
1020;SDS011;499;42.648;23.270;2023-07-31T14:55:19;2.27;;;1.17;;
1020;SDS011;499;42.648;23.270;2023-07-31T14:57:46;2.13;;;1.27;;
1020;SDS011;499;42.648;23.270;2023-07-31T15:00:14;1.60;;;1.13;;
1020;SDS011;499;42.648;23.270;2023-07-31T15:02:41;2.03;;;1.20;;
1020;SDS011;499;42.648;23.270;2023-07-31T15:05:08;1.57;;;1.03;;
1020;SDS011;499;42.648;23.270;2023-07-31T15:07:35;2.17;;;1.37;;
1020;SDS011;499;42.648;23.270;2023-07-31T15:10:04;1.50;;;0.80;;
1020;SDS011;499;42.648;23.270;2023-07-31T15:12:32;1.40;;;1.00;;
1020;SDS011;499;42.648;23.270;2023-07-31T15:15:00;1.73;;;1.30;;
1020;SDS011;499;42.648;23.270;2023-07-31T15:17:26;1.80;;;1.13;;
1020;SDS011;499;42.648;23.270;2023-07-31T15:19:55;1.43;;;1.00;;
1020;SDS011;499;42.648;23.270;2023-07-31T15:22:22;2.23;;;1.30;;
1020;SDS011;499;42.648;23.270;2023-07-31T15:24:49;2.17;;;1.10;;
1020;SDS011;499;42.648;23.270;2023-07-31T15:27:18;1.30;;;0.77;;
1020;SDS011;499;42.648;23.270;2023-07-31T15:29:45;1.40;;;0.87;;
1020;SDS011;499;42.648;23.270;2023-07-31T15:32:12;1.83;;;1.00;;
1020;SDS011;499;42.648;23.270;2023-07-31T15:34:39;2.07;;;1.07;;
1020;SDS011;499;42.648;23.270;2023-07-31T15:37:06;1.20;;;0.77;;
1020;SDS011;499;42.648;23.270;2023-07-31T15:39:33;1.50;;;0.90;;
1020;SDS011;499;42.648;23.270;2023-07-31T15:42:00;1.03;;;0.50;;
1020;SDS011;499;42.648;23.270;2023-07-31T15:44:28;1.37;;;0.80;;
1020;SDS011;499;42.648;23.270;2023-07-31T15:46:55;1.97;;;1.17;;
1020;SDS011;499;42.648;23.270;2023-07-31T15:49:22;1.73;;;0.97;;
1020;SDS011;499;42.648;23.270;2023-07-31T15:51:49;1.77;;;0.90;;